Date,TemperatureHighF,TemperatureAvgF,TemperatureLowF,DewpointHighF,DewpointAvgF,DewpointLowF,HumidityHigh,HumidityAvg,HumidityLow,PressureMaxIn,PressureMinIn,WindSpeedMaxMPH,WindSpeedAvgMPH,GustSpeedMaxMPH,PrecipitationSumIn
2013-1-1,40.5,24.9,26.1,35.8,2.2,-99.9,99,75,83,30.52,30.37,3,-219,4,0.00
2013-1-2,48.4,27.1,25.2,35.8,-0.6,-99.9,100,60,42,30.38,30.21,11,-215,15,0.01
2013-1-3,46.5,28.6,22.5,34.2,0.7,-99.9,97,58,42,30.22,30.10,6,-201,9,0.06
2013-1-4,48.2,27.8,35.2,44.1,-8.6,-99.9,98,60,83,30.32,30.17,8,-350,10,0.00
2013-1-5,43.7,19.3,40.3,40.1,-36.7,-99.9,92,40,81,30.21,30.11,5,-542,7,0.01
2013-1-6,45.5,25.7,40.1,40.8,-15.9,-99.9,94,54,81,30.18,29.99,12,-393,18,0.15
2013-1-7,49.1,20.9,40.8,48.4,-34.5,-99.9,98,43,91,30.15,29.82,11,-547,14,0.20
2013-1-8,51.0,15.2,40.7,49.6,-52.2,-99.9,96,31,93,30.16,29.70,14,-666,22,0.05
2013-1-9,37.9,9.6,34.2,36.2,-63.6,-99.9,97,26,94,29.95,29.66,9,-729,10,0.52
2013-1-10,37.6,19.4,26.3,36.3,-21.0,-99.9,99,58,93,30.12,29.94,4,-399,5,0.04
2013-1-11,34.3,22.8,21.3,31.7,4.0,-99.9,99,79,86,30.34,30.11,4,-180,6,0.00
2013-1-12,34.7,21.2,19.9,29.2,0.0,-99.9,98,74,71,30.46,30.33,3,-195,5,0.00
2013-1-13,33.7,25.8,17.5,28.5,23.6,16.5,97,92,75,30.50,30.45,1,0,3,0.00
2013-1-14,33.5,31.7,29.8,32.7,30.6,28.2,98,96,93,30.58,30.48,2,0,3,0.00
2013-1-15,43.3,33.4,25.9,36.9,31.4,25.2,99,93,70,30.71,30.58,3,0,5,0.01
2013-1-16,42.4,29.2,22.4,35.9,27.7,21.5,98,94,78,30.69,30.52,2,0,4,0.00
2013-1-17,32.8,28.5,25.2,32.6,28.1,24.5,99,98,97,30.54,30.30,2,0,3,0.00
2013-1-18,33.2,29.0,23.9,33.0,28.7,23.2,99,98,97,30.36,30.27,3,0,4,0.01
2013-1-19,32.7,30.5,27.8,32.7,30.3,27.3,100,99,98,30.40,30.34,1,0,3,0.00
2013-1-20,34.2,30.4,26.8,33.8,30.2,26.3,100,99,98,30.41,30.27,2,0,3,0.01
2013-1-21,31.1,29.4,27.7,30.9,29.2,27.5,100,99,99,30.28,30.14,3,0,4,0.00
2013-1-22,35.9,29.7,23.4,35.9,29.4,22.7,100,99,97,30.16,29.90,2,0,3,0.01
2013-1-23,40.7,37.5,33.2,40.1,37.2,33.1,100,99,97,30.14,29.84,7,1,10,0.44
2013-1-24,45.1,41.5,38.5,41.7,39.1,37.1,99,91,76,30.21,30.03,12,3,16,0.26
2013-1-25,49.8,44.9,39.2,44.4,42.4,37.3,98,91,80,30.05,29.92,11,4,14,0.00
2013-1-26,42.4,39.5,37.9,39.7,38.1,36.4,98,95,89,30.03,29.87,8,3,12,0.60
2013-1-27,41.3,39.0,36.9,40.1,38.2,36.1,98,97,94,30.05,29.98,6,2,8,0.64
2013-1-28,39.4,37.3,35.4,38.4,36.6,34.9,99,97,95,30.08,29.99,7,2,9,1.57
2013-1-29,43.8,40.7,37.7,43.3,40.1,37.2,100,98,94,30.33,30.08,6,2,10,0.83
2013-1-30,47.8,44.7,41.5,47.3,44.3,40.8,99,98,97,30.38,30.32,7,1,10,0.23
2013-1-31,48.3,45.6,43.8,46.1,44.6,43.5,100,97,90,30.38,30.29,10,3,15,0.14
2013-2-1,52.4,44.0,34.4,46.4,42.2,33.9,99,94,76,30.41,30.33,3,1,7,0.02
2013-2-2,40.7,36.2,31.8,40.4,35.9,31.6,100,99,98,30.39,30.26,4,1,6,0.01
2013-2-3,47.6,41.8,35.9,44.3,40.8,35.6,100,96,87,30.31,30.20,6,2,9,0.07
2013-2-4,49.5,45.5,43.3,44.3,42.9,41.7,98,91,79,30.20,29.86,8,3,11,0.00
2013-2-5,50.2,46.5,44.0,43.7,42.3,40.9,94,86,74,29.92,29.81,12,7,23,0.03
2013-2-6,48.1,45.3,43.4,41.6,40.4,38.8,90,83,71,30.03,29.79,10,6,15,0.04
2013-2-7,49.2,41.6,30.5,41.2,36.8,29.9,98,84,59,30.19,29.79,12,4,18,0.20
2013-2-8,43.3,34.6,25.5,38.7,32.8,24.8,99,93,80,30.32,30.20,2,0,3,0.01
2013-2-9,42.8,39.5,37.6,40.9,38.7,36.6,99,97,92,30.34,30.26,2,0,3,0.10
2013-2-10,46.1,37.9,30.1,40.7,36.2,29.9,99,94,80,30.39,30.32,3,0,4,0.00
2013-2-11,42.7,40.6,38.3,40.9,39.3,37.3,98,95,92,30.36,30.33,6,2,9,0.04
2013-2-12,48.8,45.1,40.8,45.9,43.3,40.1,98,93,86,30.40,30.26,10,3,12,0.00
2013-2-13,48.5,44.5,41.9,44.8,42.2,40.8,98,92,82,30.50,30.29,6,1,8,0.02
2013-2-14,49.0,44.5,41.1,44.1,42.3,39.5,97,92,82,30.56,30.49,8,2,10,0.08
2013-2-15,57.5,43.4,33.1,47.2,40.4,32.6,99,90,68,30.55,30.17,6,1,9,0.00
2013-2-16,46.7,41.7,33.7,44.6,39.5,33.1,100,92,78,30.20,30.13,10,2,15,0.22
2013-2-17,44.5,39.9,33.2,39.5,37.5,32.4,98,91,79,30.25,30.12,6,2,9,0.06
2013-2-18,45.1,38.1,30.9,38.2,34.8,30.4,99,88,73,30.11,29.76,8,2,11,0.01
2013-2-19,49.2,40.3,30.5,37.8,34.8,29.5,97,82,58,30.01,29.75,8,2,13,0.00
2013-2-20,43.7,37.1,29.4,39.5,35.3,28.7,98,93,79,30.05,30.00,9,2,13,0.01
2013-2-21,42.7,40.1,37.4,40.0,38.4,35.8,97,94,85,30.06,30.00,9,4,12,0.11
2013-2-22,45.2,40.7,34.5,41.8,38.4,33.6,98,91,85,30.03,29.67,16,7,22,0.40
2013-2-23,47.6,40.3,35.5,41.2,36.7,33.8,97,88,67,30.37,29.89,9,2,15,0.21
2013-2-24,46.7,42.7,38.1,39.3,37.4,35.9,93,82,71,30.38,29.94,14,8,19,0.00
2013-2-25,49.2,43.6,40.2,41.3,36.4,31.2,94,77,52,30.30,29.88,12,5,19,0.12
2013-2-26,46.8,41.7,32.2,37.5,34.1,30.7,96,75,58,30.35,30.19,11,5,18,0.00
2013-2-27,50.1,43.5,38.9,41.9,38.7,34.5,94,84,56,30.30,30.19,7,3,12,0.07
2013-2-28,52.4,45.2,39.4,50.3,43.7,38.1,98,94,91,30.29,30.19,11,4,18,0.33
2013-3-1,57.3,54.6,52.2,50.7,49.9,48.7,92,85,77,30.34,30.25,11,8,21,0.00
2013-3-2,56.5,49.0,39.0,49.0,43.8,35.1,95,83,73,30.26,30.05,12,5,19,0.27
2013-3-3,48.9,39.9,29.7,39.1,35.3,28.7,97,84,54,30.32,30.19,6,1,12,0.01
2013-3-4,54.1,38.9,25.6,35.7,29.9,24.8,98,74,36,30.31,29.94,8,1,10,0.01
2013-3-5,53.6,42.2,32.3,39.3,34.4,29.2,91,76,43,29.94,29.73,5,1,7,0.00
2013-3-6,42.5,39.9,35.3,41.2,38.7,34.3,97,95,91,29.89,29.59,9,2,11,0.43
2013-3-7,47.2,40.6,32.4,44.5,39.2,31.9,99,95,85,30.10,29.89,10,3,13,0.24
2013-3-8,52.4,37.8,28.8,44.5,35.2,28.4,99,91,65,30.25,30.09,6,1,11,0.00
2013-3-9,54.4,38.6,26.2,42.2,34.5,25.6,98,87,58,30.50,30.25,5,1,8,0.01
2013-3-10,48.0,40.9,32.4,40.7,37.5,31.5,97,88,70,30.50,30.43,3,1,5,0.00
2013-3-11,54.3,45.0,34.0,44.6,39.8,33.5,98,83,56,30.45,30.15,8,1,11,0.00
2013-3-12,54.1,51.4,49.1,50.2,48.0,43.6,95,88,79,30.15,30.03,11,7,19,0.23
2013-3-13,53.2,51.7,50.7,50.7,49.3,48.4,96,91,85,30.19,30.08,11,5,15,0.24
2013-3-14,53.7,51.2,48.6,50.8,47.9,44.7,96,89,77,30.14,30.01,11,5,19,0.02
2013-3-15,59.0,52.4,48.4,50.2,48.0,45.7,96,85,71,30.20,30.12,10,4,10,0.01
2013-3-16,50.9,43.9,35.8,46.7,41.8,35.0,97,92,77,30.13,29.88,12,3,13,0.42
2013-3-17,46.4,41.1,36.0,37.8,35.7,32.6,98,82,61,30.19,29.97,7,3,11,0.09
2013-3-18,49.2,42.1,34.2,39.6,34.7,28.2,95,77,47,30.25,30.09,10,4,19,0.10
2013-3-19,54.7,41.5,30.8,41.2,33.9,26.8,97,78,35,30.24,29.60,16,4,18,0.05
2013-3-20,52.7,46.1,35.5,48.0,41.2,33.2,94,83,69,30.01,29.36,15,8,29,0.31
2013-3-21,45.9,39.3,35.2,38.8,34.4,31.7,95,83,63,30.20,30.01,8,3,12,0.03
2013-3-22,47.1,37.4,30.0,36.4,32.4,26.6,97,84,47,30.39,30.20,6,2,10,0.13
2013-3-23,50.6,38.1,28.6,34.0,29.1,24.9,97,74,38,30.41,30.31,5,1,9,0.01
2013-3-24,57.2,40.8,27.1,34.7,30.8,26.0,96,71,34,30.32,30.13,4,1,7,0.00
2013-3-25,61.6,44.4,28.4,35.9,31.7,26.8,95,66,30,30.15,29.94,5,1,8,0.00
2013-3-26,61.3,47.0,33.9,41.1,37.2,31.4,93,71,42,30.02,29.96,5,1,8,0.00
2013-3-27,55.9,47.9,40.3,44.7,41.6,38.6,94,80,60,30.00,29.94,4,1,6,0.00
2013-3-28,62.7,50.0,37.6,48.6,43.3,36.6,97,80,52,30.15,29.99,6,1,8,0.00
2013-3-29,63.3,51.2,38.7,48.9,44.4,37.8,98,80,52,30.25,30.15,6,1,10,0.00
2013-3-30,65.1,49.7,34.8,48.7,42.4,34.1,99,79,52,30.27,30.08,7,2,11,0.00
2013-3-31,70.2,52.6,34.3,48.0,41.9,33.5,97,71,39,30.08,29.90,5,1,7,0.00
2013-4-1,60.4,49.4,37.3,49.8,45.1,36.3,98,86,67,30.15,29.96,6,2,9,0.00
2013-4-2,54.2,51.8,48.7,48.7,46.7,44.7,91,83,73,30.20,30.15,7,3,11,0.00
2013-4-3,63.1,52.9,45.6,49.5,46.0,41.7,95,79,47,30.19,29.95,5,1,9,0.00
2013-4-4,56.5,52.0,46.9,54.1,49.1,44.9,96,90,81,29.95,29.62,11,2,18,0.27
2013-4-5,58.4,53.2,49.3,51.3,48.4,44.9,94,84,68,29.84,29.71,11,7,17,0.07
2013-4-6,52.7,49.2,46.3,46.6,43.6,40.1,91,81,71,29.91,29.68,14,8,21,0.07
2013-4-7,46.2,42.7,40.3,42.4,40.7,38.2,97,93,80,29.89,29.51,8,2,10,1.05
2013-4-8,54.8,45.9,42.3,46.3,43.1,41.4,97,91,67,30.27,29.89,6,2,8,0.06
2013-4-9,54.8,49.7,42.9,45.1,43.2,41.5,95,79,64,30.34,30.17,9,3,12,0.00
2013-4-10,54.8,50.9,45.1,49.5,44.5,40.6,94,79,64,30.25,29.88,16,7,23,0.09
2013-4-11,55.1,46.7,37.9,43.6,39.8,34.8,97,78,51,30.30,30.19,7,2,10,0.22
2013-4-12,47.5,40.8,35.5,41.2,38.1,34.0,96,90,73,30.19,29.68,12,4,17,0.21
2013-4-13,47.8,41.7,38.0,43.8,38.0,32.6,95,87,72,29.99,29.73,10,3,14,0.22
2013-4-14,53.0,44.1,38.1,41.2,37.9,34.0,97,81,50,30.02,29.91,7,2,9,0.14
2013-4-15,53.8,43.7,36.1,42.8,39.1,35.3,97,85,62,30.19,29.94,8,2,15,0.02
2013-4-16,57.4,44.2,29.2,41.9,35.7,28.7,98,75,43,30.40,30.19,9,2,12,0.01
2013-4-17,59.0,46.4,32.5,42.7,37.3,30.1,97,73,35,30.46,30.40,9,2,13,0.00
2013-4-18,49.5,46.6,43.5,46.6,43.0,39.9,95,88,76,30.45,30.20,12,5,15,0.20
2013-4-19,53.7,49.8,47.9,51.0,48.3,46.2,97,95,88,30.20,30.06,9,3,13,0.45
2013-4-20,55.2,48.5,45.9,47.8,45.7,44.1,98,90,74,30.28,30.19,7,1,10,0.17
2013-4-21,53.4,46.1,37.2,45.7,42.6,36.2,98,88,68,30.37,30.23,7,2,12,0.25
2013-4-22,59.2,45.7,29.7,41.9,34.3,26.0,98,69,31,30.53,30.38,8,2,14,0.00
2013-4-23,61.6,47.1,31.4,42.9,36.1,29.1,96,69,31,30.43,30.25,7,2,13,0.00
2013-4-24,68.5,52.1,33.3,45.3,38.3,29.9,97,65,25,30.33,30.06,7,1,11,0.00
2013-4-25,71.9,55.1,36.9,47.2,41.7,35.3,95,65,36,30.14,30.05,6,1,8,0.00
2013-4-26,67.6,54.3,40.9,51.3,45.8,39.8,98,75,50,30.25,30.14,6,1,8,0.00
2013-4-27,55.5,52.3,48.3,49.5,45.7,39.6,97,79,56,30.22,30.14,11,4,20,0.24
2013-4-28,55.7,50.2,45.9,48.4,45.7,42.1,97,85,70,30.22,29.92,8,2,16,0.16
2013-4-29,53.1,48.0,44.2,46.0,36.3,29.3,93,65,42,30.16,29.92,14,8,26,0.08
2013-4-30,55.3,45.4,36.3,41.2,33.7,24.4,94,67,34,30.45,30.16,9,2,16,0.08
2013-5-1,63.6,47.9,29.3,40.7,35.2,28.0,97,65,39,30.59,30.45,6,2,10,0.00
2013-5-2,68.0,52.2,37.1,45.8,40.9,35.4,95,68,39,30.55,30.37,10,2,15,0.00
2013-5-3,67.6,53.8,37.5,50.4,44.1,36.5,97,72,43,30.40,30.23,9,3,15,0.00
2013-5-4,76.2,59.4,41.4,52.9,45.9,39.9,96,65,35,30.25,30.01,10,2,20,0.00
2013-5-5,80.8,63.1,42.5,55.1,48.6,41.1,96,64,36,30.01,29.76,6,2,11,0.00
2013-5-6,85.4,65.9,45.5,55.6,48.8,43.7,95,60,29,29.85,29.75,6,1,11,0.00
2013-5-7,73.0,57.7,46.9,57.5,50.7,45.1,95,79,52,29.99,29.82,6,2,9,0.00
2013-5-8,66.7,55.1,46.0,54.9,50.5,44.9,97,85,65,30.15,30.00,3,1,6,0.00
2013-5-9,70.3,55.7,46.1,57.1,50.5,45.1,98,84,59,30.23,30.11,6,1,9,0.00
2013-5-10,77.6,60.3,44.0,59.0,51.6,43.1,98,76,50,30.21,30.10,5,1,7,0.00
2013-5-11,81.8,63.2,50.0,57.8,51.9,47.6,93,69,41,30.17,29.98,6,1,9,0.00
2013-5-12,70.1,62.2,56.5,58.6,55.9,51.3,98,81,61,30.08,29.99,9,3,11,0.15
2013-5-13,64.1,56.7,46.3,56.0,51.5,44.4,93,83,56,30.19,29.92,14,4,25,0.07
2013-5-14,65.5,54.3,46.1,45.8,43.8,38.7,94,70,41,30.22,30.12,7,2,11,0.00
2013-5-15,66.1,53.3,41.6,50.4,45.2,39.1,96,77,40,30.13,30.01,9,2,12,0.05
2013-5-16,68.0,58.2,51.4,55.2,52.1,49.8,97,81,60,30.02,29.86,7,2,11,0.04
2013-5-17,59.3,56.1,52.8,52.8,50.8,47.2,94,83,67,30.04,29.93,9,4,12,0.02
2013-5-18,62.4,56.1,52.5,51.1,48.0,44.0,87,75,52,30.28,30.04,7,3,13,0.00
2013-5-19,66.0,55.3,48.4,53.3,49.6,46.0,96,82,58,30.41,30.27,5,1,8,0.07
2013-5-20,67.0,53.5,40.9,52.6,47.1,40.1,98,81,52,30.36,29.91,7,2,9,0.00
2013-5-21,53.5,49.2,46.7,50.1,46.9,45.1,97,92,84,29.91,29.79,6,2,8,0.80
2013-5-22,51.2,47.8,45.4,48.1,45.5,43.0,97,92,84,29.94,29.85,5,2,9,0.06
2013-5-23,57.3,48.6,42.5,48.2,45.0,42.0,99,88,66,30.02,29.93,8,2,12,0.04
2013-5-24,61.7,52.0,40.3,48.9,45.1,39.8,99,79,56,30.04,29.98,6,1,9,0.01
2013-5-25,65.1,55.7,49.6,49.7,47.5,43.4,93,75,50,30.04,29.98,8,3,12,0.02
2013-5-26,52.8,51.9,50.6,49.1,48.8,48.4,92,89,86,29.98,29.95,2,0,2,0.00
2013-5-28,56.1,55.2,54.3,50.7,49.8,49.0,83,82,81,29.80,29.77,6,5,9,0.01
2013-5-29,55.1,52.1,50.0,51.3,49.3,48.1,96,90,82,29.97,29.67,4,1,6,0.26
2013-5-30,60.8,53.2,47.9,54.8,49.2,46.8,96,87,67,30.24,29.97,10,2,15,0.37
2013-5-31,66.8,56.6,48.3,50.9,48.1,45.1,97,75,47,30.34,30.24,5,1,9,0.05
2013-6-1,70.0,58.1,46.9,53.6,49.0,44.6,95,74,49,30.25,30.06,7,2,9,0.00
2013-6-2,68.9,59.7,52.4,53.5,50.5,48.5,90,73,52,30.09,30.04,6,3,13,0.01
2013-6-3,71.0,59.3,45.2,56.0,51.4,44.1,97,77,56,30.12,30.06,6,2,10,0.00
2013-6-4,77.8,63.2,46.8,59.2,52.5,45.4,96,71,44,30.14,30.02,7,2,11,0.00
2013-6-5,76.5,61.6,49.2,59.6,53.4,46.5,94,76,52,30.10,30.03,6,2,10,0.00
2013-6-6,77.8,62.7,47.9,59.2,50.6,39.1,97,68,36,30.06,30.00,8,2,12,0.00
2013-6-7,66.6,59.2,52.0,52.5,48.2,43.2,83,68,49,30.17,30.02,10,2,12,0.00
2013-6-8,65.5,57.5,50.3,52.0,48.8,45.9,89,73,61,30.19,30.11,7,2,10,0.00
2013-6-9,65.2,56.3,49.6,49.3,46.8,43.1,92,72,49,30.12,30.04,8,3,15,0.00
2013-6-10,68.8,56.0,42.3,51.7,47.0,41.0,95,74,43,30.05,29.88,6,2,11,0.00
2013-6-11,62.9,56.1,51.1,51.2,48.2,45.3,90,75,58,30.10,29.94,10,3,14,0.00
2013-6-12,67.3,58.0,51.0,50.6,48.1,45.3,86,71,47,30.14,30.10,8,4,13,0.00
2013-6-13,67.8,58.0,52.9,52.0,50.4,47.4,94,77,49,30.22,30.14,8,2,12,0.01
2013-6-14,67.2,58.1,51.9,51.0,49.6,48.4,90,74,55,30.23,30.06,6,2,9,0.00
2013-6-15,76.3,61.3,43.3,58.6,52.4,42.5,97,75,49,30.06,29.90,5,1,10,0.00
2013-6-16,73.4,61.1,49.6,59.1,54.2,48.5,97,80,55,30.09,29.98,5,1,8,0.02
2013-6-17,76.4,61.7,48.9,57.0,52.5,47.8,97,75,38,30.09,29.88,7,2,10,0.13
2013-6-18,73.5,62.3,54.0,55.1,51.6,40.3,96,71,31,29.97,29.86,6,2,11,0.01
2013-6-19,68.7,58.9,54.1,54.7,51.9,49.7,94,78,54,30.00,29.91,6,1,10,0.16
2013-6-20,57.1,53.9,52.3,54.3,52.1,50.3,97,94,78,30.11,29.96,4,0,7,1.13
2013-6-21,66.2,58.5,51.8,56.5,53.4,51.0,98,84,66,30.16,30.10,4,0,5,0.04
2013-6-22,76.6,63.9,49.3,57.9,53.2,48.5,98,71,41,30.13,29.85,6,2,9,0.00
2013-6-23,72.1,63.9,55.0,62.2,58.4,53.1,95,83,66,29.85,29.58,3,0,5,0.00
2013-6-24,66.8,61.5,57.8,60.8,57.2,54.6,97,86,66,29.69,29.57,11,4,16,0.23
2013-6-25,71.1,61.4,55.8,61.5,56.5,54.3,96,85,62,29.86,29.67,10,3,15,0.38
2013-6-26,70.7,62.4,55.5,62.4,57.2,53.6,96,84,63,30.08,29.84,8,2,12,0.06
2013-6-27,72.2,64.8,57.8,63.9,60.5,56.7,97,87,71,30.20,30.05,10,2,15,0.12
2013-6-28,87.3,70.8,58.7,69.3,62.5,57.9,98,77,41,30.19,30.03,6,1,9,0.00
2013-6-29,83.1,71.9,61.6,66.0,62.3,58.6,94,73,50,30.10,29.99,5,2,9,0.00
2013-6-30,92.3,74.4,57.9,71.1,63.4,56.4,96,71,45,30.01,29.84,5,1,9,0.00
2013-7-1,83.0,71.5,60.6,66.5,61.0,56.3,90,70,55,30.03,29.90,7,2,12,0.00
2013-7-2,76.0,65.9,56.5,62.7,55.7,51.1,94,72,46,30.11,30.03,7,2,12,0.00
2013-7-3,75.5,63.0,51.6,56.4,51.5,45.8,90,68,35,30.16,30.05,6,2,10,0.00
2013-7-4,71.1,61.9,54.7,56.2,52.9,49.5,87,73,49,30.12,30.02,5,2,10,0.00
2013-7-5,75.0,62.0,49.3,57.5,53.7,47.9,97,76,51,30.04,29.94,5,1,7,0.00
2013-7-6,77.8,64.5,50.5,61.8,55.5,49.4,97,75,52,29.98,29.85,5,2,11,0.00
2013-7-7,77.4,66.1,52.2,60.3,55.9,50.6,95,72,47,29.94,29.86,6,2,10,0.00
2013-7-8,78.8,64.9,52.9,61.1,56.6,51.2,96,76,49,30.09,29.93,5,2,11,0.00
2013-7-9,82.8,66.7,53.3,63.9,56.6,51.5,96,72,46,30.11,30.01,7,2,10,0.00
2013-7-10,71.6,61.7,54.1,58.8,53.5,48.9,88,75,62,30.06,29.97,7,3,13,0.00
2013-7-11,67.8,59.4,52.1,52.3,49.3,46.6,83,70,50,30.08,30.00,7,2,11,0.00
2013-7-12,68.6,57.3,46.7,55.3,50.2,44.5,93,78,61,30.11,30.02,5,1,9,0.00
2013-7-13,74.2,60.9,43.9,54.9,49.8,42.6,96,70,40,30.21,30.10,7,2,13,0.00
2013-7-14,79.9,63.1,44.9,57.0,49.9,43.6,96,66,35,30.14,30.00,7,2,10,0.00
2013-7-15,79.4,64.1,46.9,56.9,50.8,45.5,96,66,36,30.06,29.89,11,3,20,0.00
2013-7-16,85.1,69.2,50.6,59.4,53.8,48.7,94,62,34,29.91,29.79,7,2,10,0.00
2013-7-17,70.8,66.1,61.3,60.9,58.3,55.3,95,76,64,30.18,29.86,8,3,12,0.05
2013-7-18,76.5,65.1,57.0,60.5,56.3,53.3,89,74,56,30.23,30.12,6,2,9,0.00
2013-7-19,78.8,63.1,52.4,63.4,56.6,51.2,97,81,57,30.18,30.04,5,2,9,0.00
2013-7-20,75.3,61.0,53.6,62.1,56.0,51.9,97,85,62,30.09,29.96,4,2,7,0.00
2013-7-21,76.4,62.2,52.4,61.7,56.6,51.3,98,84,59,29.98,29.89,4,1,8,0.00
2013-7-22,78.7,63.9,53.6,62.6,57.6,52.8,98,82,56,30.06,29.93,5,1,8,0.00
2013-7-23,83.5,64.9,51.6,63.7,55.8,50.8,98,76,40,30.07,29.95,8,2,12,0.00
2013-7-24,83.4,65.9,50.5,61.4,54.6,48.8,95,70,41,30.06,29.99,6,2,9,0.00
2013-7-25,82.7,64.6,49.2,61.1,53.7,47.6,96,71,32,30.11,30.04,6,2,10,0.00
2013-7-26,82.7,64.8,48.2,60.2,51.2,45.8,96,66,33,30.15,30.08,7,2,9,0.00
2013-7-27,76.8,63.3,47.3,56.9,51.9,45.7,95,69,41,30.16,29.99,6,2,10,0.00
2013-7-28,70.1,60.0,47.9,57.3,53.6,46.5,96,80,63,30.02,29.94,6,2,8,0.00
2013-7-29,74.5,63.7,54.8,57.7,55.2,52.6,93,75,55,30.01,29.94,5,1,7,0.00
2013-7-30,76.9,63.1,51.1,60.2,55.6,50.0,97,78,51,30.13,30.00,4,1,9,0.00
2013-7-31,71.5,60.3,54.2,61.8,56.8,52.7,98,89,68,30.12,29.99,5,1,9,0.02
2013-8-1,64.7,61.0,56.9,58.6,56.7,55.1,94,86,78,30.06,30.02,8,3,11,0.00
2013-8-2,62.3,59.2,57.5,58.4,57.0,54.9,98,93,80,30.13,30.05,6,2,10,0.59
2013-8-3,73.3,64.0,57.4,61.5,59.0,55.7,99,85,65,30.14,30.05,4,1,6,0.01
2013-8-4,79.5,65.5,53.7,65.3,58.6,52.9,97,80,55,30.07,29.93,5,1,8,0.00
2013-8-5,83.0,66.8,51.8,64.2,57.5,51.0,98,75,49,30.01,29.92,7,2,9,0.00
2013-8-6,84.4,66.2,49.9,61.2,54.2,48.5,98,69,36,30.01,29.91,5,1,11,0.00
2013-8-7,82.8,66.9,52.3,60.0,55.6,51.1,97,70,43,30.00,29.93,6,1,10,0.00
2013-8-8,78.8,66.4,56.3,62.8,57.4,53.6,95,75,52,30.03,29.94,8,2,10,0.00
2013-8-9,82.4,66.6,53.2,63.0,57.7,51.3,95,75,51,29.96,29.82,6,2,8,0.00
2013-8-10,78.5,67.6,61.0,64.4,60.8,56.4,95,80,59,30.01,29.84,6,2,11,0.05
2013-8-11,75.3,63.8,56.6,60.5,57.0,53.6,95,80,57,30.06,29.98,5,1,8,0.02
2013-8-12,77.5,64.4,55.1,60.4,56.4,53.1,94,77,52,30.07,29.99,5,1,8,0.00
2013-8-13,80.1,66.6,55.8,60.0,56.7,53.7,94,73,50,30.10,29.93,6,2,9,0.00
2013-8-14,82.5,66.8,52.3,63.2,57.9,50.9,96,76,44,29.95,29.89,6,1,9,0.01
2013-8-15,70.1,66.1,63.4,65.9,64.1,62.3,98,93,83,29.99,29.92,4,1,6,0.10
2013-8-16,83.6,70.1,62.2,66.6,62.4,58.6,99,79,45,30.00,29.93,5,1,8,0.00
2013-8-17,77.7,67.1,59.7,62.6,59.4,56.1,93,77,57,30.07,29.99,4,1,9,0.00
2013-8-18,73.9,64.9,56.5,60.7,56.6,52.3,94,75,60,30.11,30.07,7,2,12,0.00
2013-8-19,77.3,65.7,58.7,60.0,55.4,50.6,88,70,53,30.12,30.06,9,2,16,0.00
2013-8-20,74.9,63.3,51.6,58.2,53.5,50.1,95,73,48,30.17,30.07,8,2,12,0.00
2013-8-21,78.9,63.6,46.7,58.6,52.7,45.6,97,71,44,30.10,29.93,7,2,10,0.00
2013-8-22,83.5,67.2,50.9,61.9,56.7,49.3,95,71,46,29.95,29.78,5,1,7,0.00
2013-8-23,72.9,65.3,57.2,59.5,57.1,54.7,93,76,58,29.89,29.82,11,3,17,0.00
2013-8-24,73.3,63.1,57.9,61.0,57.6,53.4,97,83,58,29.92,29.85,7,1,10,0.21
2013-8-25,72.7,60.7,47.8,60.5,55.5,47.0,98,84,58,29.95,29.86,7,1,11,0.01
2013-8-26,74.8,65.6,60.2,60.5,57.8,52.7,91,77,49,29.95,29.84,7,2,12,0.00
2013-8-27,80.3,68.4,59.3,61.8,59.2,57.0,92,74,49,29.95,29.79,5,2,7,0.02
2013-8-28,80.2,68.0,59.0,65.7,61.6,57.1,98,82,55,29.88,29.82,5,1,7,0.12
2013-8-29,74.0,66.0,62.2,66.0,63.1,60.2,98,91,70,30.00,29.85,10,3,14,0.80
2013-8-30,77.8,67.6,57.1,63.3,58.4,53.7,97,75,44,30.14,29.99,11,3,14,0.00
2013-8-31,80.1,64.2,49.5,62.5,56.8,48.9,99,79,53,30.08,29.83,5,1,10,0.00
2013-9-1,79.7,65.8,52.7,62.8,57.9,51.9,98,78,54,29.88,29.78,5,1,6,0.00
2013-9-2,79.8,66.9,54.8,61.9,58.0,53.6,97,75,49,29.94,29.85,6,1,10,0.00
2013-9-3,73.8,63.7,57.9,65.0,60.6,57.0,98,90,69,30.02,29.93,3,0,5,0.14
2013-9-4,71.0,61.9,55.5,63.3,59.4,54.7,99,92,75,30.05,30.00,5,1,8,0.00
2013-9-5,68.4,61.1,54.5,63.3,59.0,53.9,99,93,82,30.05,29.91,6,1,7,0.11
2013-9-6,71.8,65.1,59.9,64.0,61.9,59.6,99,89,75,30.10,29.98,5,1,6,1.28
2013-9-7,73.6,65.3,58.0,63.9,60.6,57.0,98,86,65,30.10,30.01,5,1,9,0.01
2013-9-8,78.0,64.2,55.2,64.9,59.6,54.6,99,87,62,30.11,30.01,5,1,8,0.00
2013-9-9,77.2,63.7,55.7,64.9,59.3,55.3,99,87,64,30.07,29.97,5,1,9,0.00
2013-9-10,77.7,63.4,54.5,66.4,59.2,54.2,99,87,67,30.00,29.88,6,1,8,0.00
2013-9-11,93.4,70.4,52.1,68.5,60.8,51.6,99,76,33,29.94,29.86,3,0,6,0.00
2013-9-12,78.5,65.7,54.7,64.7,60.0,54.1,98,83,62,29.99,29.89,5,1,7,0.00
2013-9-13,64.8,60.9,56.3,61.2,59.1,55.5,99,94,88,29.97,29.87,3,0,4,0.00
2013-9-14,68.6,63.2,59.0,62.7,60.5,58.2,98,91,81,29.88,29.73,3,0,7,0.01
2013-9-15,64.9,61.1,57.4,62.4,59.8,56.9,99,96,89,29.80,29.71,7,1,9,0.22
2013-9-16,64.1,60.9,55.4,60.9,57.9,53.4,96,90,82,29.94,29.80,9,3,12,0.09
2013-9-17,61.1,57.2,54.1,55.9,54.2,52.3,98,90,79,29.94,29.86,4,1,8,0.01
2013-9-18,68.7,57.5,49.2,56.4,52.5,47.8,99,85,50,30.07,29.94,3,0,5,0.02
2013-9-19,80.1,59.4,42.6,55.6,50.1,42.1,99,76,37,30.06,29.76,3,0,5,0.00
2013-9-20,75.7,60.3,45.3,56.7,52.2,44.1,98,77,46,29.76,29.58,7,2,12,0.00
2013-9-21,68.7,60.6,54.7,56.6,54.9,51.2,95,82,58,29.71,29.63,7,1,10,0.00
2013-9-22,60.5,58.4,55.1,55.3,53.3,49.5,91,83,68,29.71,29.56,10,6,17,0.08
2013-9-23,60.9,55.9,51.0,54.6,51.9,49.9,96,86,76,29.97,29.71,8,3,14,0.10
2013-9-24,62.6,53.8,49.2,51.3,49.4,46.1,97,86,55,29.97,29.83,7,2,10,0.17
2013-9-25,58.4,51.5,43.2,50.9,48.6,42.4,98,90,74,30.03,29.86,6,1,12,0.01
2013-9-26,61.8,48.6,37.9,51.8,45.0,37.2,99,89,64,30.13,30.03,4,1,9,0.01
2013-9-27,55.6,51.8,42.4,52.9,49.2,41.6,98,91,83,30.12,29.83,10,4,15,0.09
2013-9-28,60.1,55.5,50.4,58.1,53.0,49.0,97,92,88,29.83,29.32,18,7,22,0.53
2013-9-29,56.2,53.5,51.4,51.9,49.6,47.7,96,87,76,29.54,29.14,19,10,24,0.22
2013-9-30,57.9,53.1,50.2,51.2,48.0,44.8,89,83,74,29.90,29.38,10,6,16,0.00
2013-10-1,56.8,51.6,47.7,48.1,45.9,43.1,90,81,64,30.11,29.90,10,6,19,0.09
2013-10-2,52.8,50.1,48.4,49.3,47.9,46.7,97,92,86,30.18,30.06,7,2,10,0.26
2013-10-3,60.1,49.6,41.8,48.7,45.9,41.0,99,88,63,30.46,30.18,4,0,6,0.01
2013-10-4,65.9,49.7,38.0,50.1,44.3,37.5,99,84,50,30.49,30.35,3,0,5,0.00
2013-10-5,70.0,54.0,42.9,52.0,46.7,42.1,98,79,42,30.37,30.13,4,1,6,0.00
2013-10-6,76.8,57.0,39.1,52.8,44.9,37.0,99,70,25,30.13,29.86,8,3,13,0.01
2013-10-7,58.2,53.4,50.6,51.7,50.3,48.8,96,89,75,30.01,29.86,11,4,16,0.36
2013-10-8,56.4,50.1,39.4,51.3,46.5,38.6,99,88,66,30.08,29.95,7,2,11,0.26
2013-10-9,58.8,45.2,33.1,46.6,41.1,32.6,99,87,58,30.15,29.96,4,0,6,0.00
2013-10-10,57.5,49.5,43.1,49.6,46.3,42.3,98,89,72,30.08,29.94,3,0,5,0.00
2013-10-11,55.9,48.3,40.5,50.4,46.2,40.0,99,93,80,30.15,30.07,2,0,4,0.01
2013-10-12,56.3,49.1,40.1,50.0,46.8,39.3,98,92,75,30.23,30.08,6,1,11,0.09
2013-10-13,57.2,45.5,38.2,49.7,43.5,37.6,99,93,75,30.38,30.23,3,0,5,0.01
2013-10-14,59.8,43.9,34.5,49.4,41.1,34.2,99,91,63,30.45,30.38,3,0,5,0.00
2013-10-15,62.2,46.7,34.8,51.0,43.2,34.5,99,89,63,30.41,30.18,3,0,6,0.01
2013-10-16,53.3,48.1,40.7,49.5,46.4,40.2,99,94,86,30.21,30.16,4,0,5,0.00
2013-10-17,58.4,49.6,40.7,51.2,46.8,39.9,98,91,76,30.28,30.20,4,1,6,0.00
2013-10-18,60.7,45.7,37.9,52.6,43.9,37.5,99,94,73,30.26,30.15,2,0,3,0.01
2013-10-19,49.0,44.3,38.6,48.1,43.6,38.3,99,98,93,30.20,30.16,2,0,4,0.00
2013-10-20,49.3,47.0,45.5,47.4,46.0,45.0,98,96,92,30.21,30.16,1,0,4,0.01
2013-10-21,50.6,47.5,45.0,48.7,46.7,44.7,99,97,93,30.18,30.11,2,0,4,0.00
2013-10-22,51.7,47.1,44.2,50.0,46.6,43.9,100,98,94,30.13,30.04,2,0,4,0.01
2013-10-23,57.1,46.2,41.5,51.7,45.1,40.9,100,96,81,30.06,29.98,3,0,4,0.01
2013-10-24,50.9,44.5,39.1,50.2,44.1,38.8,100,99,96,30.13,30.02,3,1,5,0.01
2013-10-25,51.3,48.1,46.1,48.7,46.8,45.5,100,95,89,30.32,30.13,4,1,6,0.00
2013-10-26,52.6,49.4,46.9,47.5,46.7,45.4,97,90,82,30.34,30.19,4,0,5,0.00
2013-10-27,57.5,48.7,39.5,50.1,45.9,38.8,98,90,71,30.20,29.89,10,2,17,0.23
2013-10-28,60.2,44.5,33.3,43.9,36.4,33.0,99,78,41,29.96,29.88,8,1,13,0.01
2013-10-29,57.6,40.1,28.6,40.9,34.7,27.9,98,84,47,30.04,29.95,3,0,5,0.00
2013-10-30,55.3,43.5,30.1,47.6,39.3,29.4,98,86,66,30.13,30.04,11,3,14,0.00
2013-10-31,51.6,49.7,47.5,50.6,48.1,44.2,98,94,80,30.26,30.09,11,3,13,0.10
2013-11-1,58.9,52.8,48.7,53.8,50.5,48.2,99,92,79,30.27,29.83,5,1,9,0.00
2013-11-2,53.7,48.4,42.2,50.4,45.8,40.3,97,91,80,29.88,29.45,14,6,27,0.93
2013-11-3,49.7,40.1,30.5,44.6,38.1,30.0,99,93,66,30.13,29.88,4,1,7,0.27
2013-11-4,46.9,37.9,27.6,40.6,34.7,27.1,99,89,71,30.21,30.07,4,1,6,0.08
2013-11-5,45.2,42.8,40.5,44.9,42.2,38.7,99,98,92,30.27,30.03,2,0,4,0.12
2013-11-6,51.8,44.9,38.1,47.2,43.3,37.8,100,94,80,30.33,30.02,5,0,6,0.08
2013-11-7,50.3,48.5,46.8,48.2,46.4,45.1,97,92,86,30.02,29.70,15,5,19,0.40
2013-11-8,55.7,47.5,40.3,47.3,44.4,39.0,97,89,71,30.16,29.97,7,2,11,0.06
2013-11-9,50.1,42.8,33.7,45.1,41.0,33.2,99,94,80,30.16,30.07,3,0,4,0.05
2013-11-10,47.4,44.6,42.9,46.6,44.1,42.6,99,98,95,30.16,30.10,3,0,4,0.07
2013-11-11,58.3,44.9,35.7,50.5,43.4,35.4,100,95,72,30.17,30.00,4,0,4,0.01
2013-11-12,56.5,52.1,41.7,52.7,49.2,41.2,99,90,79,30.35,30.02,9,3,12,0.05
2013-11-13,55.8,52.0,48.6,50.5,48.9,47.1,97,89,77,30.43,30.31,7,1,10,0.00
2013-11-14,49.3,46.3,41.7,48.1,45.4,40.9,99,96,91,30.31,30.06,3,0,5,0.04
2013-11-15,46.5,44.1,42.5,45.7,42.7,38.8,99,95,75,30.07,29.32,16,3,20,0.76
2013-11-16,46.4,41.0,38.3,43.0,39.4,37.4,98,94,80,29.77,29.35,9,1,17,0.58
2013-11-17,50.4,46.0,38.4,46.4,43.1,37.1,95,90,82,29.89,29.77,8,4,14,0.01
2013-11-18,51.3,49.4,48.3,49.6,47.5,45.0,98,93,88,29.89,29.53,11,5,17,0.16
2013-11-19,52.2,42.7,33.3,50.5,35.5,23.0,98,77,50,30.08,29.53,9,2,13,0.25
2013-11-20,41.8,31.5,24.4,32.2,27.0,23.2,97,84,60,30.52,30.08,6,1,9,0.00
2013-11-21,41.2,28.6,20.9,30.0,24.8,19.9,97,87,57,30.68,30.52,4,0,7,0.01
2013-11-22,44.8,29.7,21.1,32.8,26.2,19.9,97,88,59,30.67,30.47,2,0,4,0.00
2013-11-23,45.8,32.4,23.6,37.2,29.7,22.6,98,90,70,30.47,30.22,2,0,6,0.01
2013-11-24,48.4,33.4,24.6,40.3,31.3,23.9,98,92,73,30.27,30.18,2,0,3,0.00
2013-11-25,52.1,36.1,27.0,39.7,32.9,26.5,98,89,61,30.33,30.26,1,0,2,0.00
2013-11-26,52.1,37.1,25.5,41.1,34.3,24.8,98,90,65,30.27,30.11,2,0,4,0.01
2013-11-27,52.9,39.8,31.3,43.8,37.4,30.6,98,92,70,30.11,29.97,2,0,4,0.00
2013-11-28,56.7,37.1,28.1,42.6,34.3,27.5,99,91,49,30.19,30.04,2,0,4,0.00
2013-11-29,47.7,42.1,36.1,44.5,40.1,35.0,97,93,83,30.33,30.18,3,1,5,0.02
2013-11-30,50.4,48.0,45.5,47.9,44.9,43.0,96,89,79,30.33,30.08,10,5,13,0.07
2013-12-1,52.4,48.5,40.9,50.2,46.7,34.5,97,94,73,30.08,29.75,9,3,12,0.46
2013-12-2,42.8,38.3,33.3,37.4,34.3,31.2,98,86,69,30.06,29.81,10,2,14,0.03
2013-12-3,39.0,29.7,22.4,32.6,25.9,21.3,98,86,60,30.33,30.06,4,1,6,0.00
2013-12-4,38.2,27.1,20.4,27.6,22.8,18.7,96,84,58,30.37,30.31,3,0,4,0.00
2013-12-5,32.1,23.3,17.0,25.6,20.7,15.8,96,90,74,30.34,30.21,2,0,3,0.00
2013-12-6,33.4,21.4,13.7,19.1,13.7,6.3,96,74,43,30.27,30.17,4,0,6,0.00
2013-12-7,29.8,17.4,9.8,11.7,7.3,1.8,89,67,31,30.45,30.26,4,0,8,0.00
2013-12-8,33.1,20.4,9.6,19.2,14.6,7.3,92,79,53,30.59,30.44,2,0,5,0.00
2013-12-9,30.4,24.7,13.7,27.2,21.3,12.0,94,87,79,30.61,30.50,1,0,3,0.00
2013-12-10,38.1,32.8,29.0,33.1,30.0,27.0,96,89,81,30.50,30.43,4,0,5,0.00
2013-12-11,41.0,31.5,25.1,33.1,28.9,24.2,98,90,71,30.43,30.17,2,0,5,0.00
2013-12-12,45.6,38.0,26.7,41.9,34.3,25.8,98,87,65,30.17,30.04,11,3,17,0.02
2013-12-13,46.4,44.4,42.1,44.9,43.4,41.3,98,96,89,30.41,30.13,9,2,10,0.02
2013-12-14,49.1,46.2,39.8,44.8,43.4,38.9,99,90,83,30.43,30.31,10,4,18,0.02
2013-12-15,48.5,47.0,43.2,47.4,45.6,42.8,99,95,86,30.45,30.32,10,2,14,0.03
2013-12-16,49.7,38.6,30.5,44.3,37.4,30.0,100,96,80,30.50,30.27,2,0,3,0.01
2013-12-17,40.1,35.3,29.3,39.8,34.9,28.8,99,98,96,30.27,30.12,5,1,8,0.00
2013-12-18,44.8,38.3,28.2,40.9,35.5,26.4,99,90,68,30.16,30.03,9,1,15,0.01
2013-12-19,36.2,29.9,22.9,30.8,26.7,20.5,94,88,78,30.36,30.16,4,0,5,0.00
2013-12-20,37.1,33.3,29.8,36.6,32.3,28.0,99,96,93,30.21,29.72,12,4,17,0.38
2013-12-21,40.6,36.9,34.2,40.1,36.5,33.9,99,99,97,30.18,29.85,1,0,3,0.21
2013-12-22,47.9,41.3,37.4,47.2,41.0,37.1,100,99,97,30.30,30.17,7,1,10,0.61
2013-12-23,49.6,46.6,39.3,48.4,43.9,37.5,98,91,75,30.52,30.13,10,4,19,0.35
2013-12-24,46.4,38.0,27.3,43.1,36.9,26.8,99,96,86,30.62,30.52,3,0,4,0.05
2013-12-25,42.9,33.2,24.8,38.3,31.8,24.1,99,95,81,30.55,30.40,2,0,3,0.01
2013-12-26,46.9,37.2,29.7,40.5,35.0,29.2,99,92,76,30.42,30.21,2,0,5,0.00
2013-12-27,42.7,36.4,29.1,42.2,36.1,28.5,100,99,98,30.37,30.11,5,0,6,0.05
2013-12-28,45.5,40.2,34.9,44.7,39.7,34.6,100,98,90,30.53,30.36,2,0,3,0.01
2013-12-29,40.8,38.3,35.8,39.5,37.8,35.5,100,98,95,30.49,30.32,3,0,4,0.00
2013-12-30,42.9,39.1,34.6,41.6,38.5,34.3,100,98,94,30.33,30.12,8,1,11,0.05
2013-12-31,45.9,43.3,39.1,44.3,42.2,38.8,99,96,91,30.38,30.20,7,1,9,0.02
2014-1-1,42.5,37.7,31.0,42.0,37.4,30.8,100,99,97,30.42,30.24,2,0,3,0.01
2014-1-2,51.7,44.2,39.1,45.0,41.5,38.3,100,91,66,30.24,29.90,12,3,18,0.48